sensor_id;sensor_type;location;lat;lon;timestamp;temperature;humidity
8067;DHT22;4076;48.076;9.118;2023-07-02T00:02:21;17.10;99.90
8067;DHT22;4076;48.076;9.118;2023-07-02T00:04:47;17.20;99.90
8067;DHT22;4076;48.076;9.118;2023-07-02T00:07:12;17.20;99.90
8067;DHT22;4076;48.076;9.118;2023-07-02T00:09:38;17.20;99.90
8067;DHT22;4076;48.076;9.118;2023-07-02T00:12:04;17.10;99.90
8067;DHT22;4076;48.076;9.118;2023-07-02T00:14:29;17.10;99.90
8067;DHT22;4076;48.076;9.118;2023-07-02T00:16:55;17.10;99.90
8067;DHT22;4076;48.076;9.118;2023-07-02T00:19:20;17.10;99.90
8067;DHT22;4076;48.076;9.118;2023-07-02T00:21:46;17.10;99.90
8067;DHT22;4076;48.076;9.118;2023-07-02T00:24:13;17.10;99.90
8067;DHT22;4076;48.076;9.118;2023-07-02T00:26:39;17.00;99.90
8067;DHT22;4076;48.076;9.118;2023-07-02T00:29:06;17.00;99.90
8067;DHT22;4076;48.076;9.118;2023-07-02T00:31:33;17.00;99.90
8067;DHT22;4076;48.076;9.118;2023-07-02T00:33:59;17.00;99.90
8067;DHT22;4076;48.076;9.118;2023-07-02T00:36:26;16.90;99.90
8067;DHT22;4076;48.076;9.118;2023-07-02T00:38:52;16.90;99.90
8067;DHT22;4076;48.076;9.118;2023-07-02T00:41:18;16.90;99.90
8067;DHT22;4076;48.076;9.118;2023-07-02T00:43:44;16.90;99.90
8067;DHT22;4076;48.076;9.118;2023-07-02T00:46:17;17.00;99.90
8067;DHT22;4076;48.076;9.118;2023-07-02T00:48:47;17.00;99.90
8067;DHT22;4076;48.076;9.118;2023-07-02T00:51:15;17.00;99.90
8067;DHT22;4076;48.076;9.118;2023-07-02T00:53:43;17.00;99.90
8067;DHT22;4076;48.076;9.118;2023-07-02T00:56:09;17.00;99.90
8067;DHT22;4076;48.076;9.118;2023-07-02T00:58:38;16.90;99.90
8067;DHT22;4076;48.076;9.118;2023-07-02T01:01:05;16.90;99.90
8067;DHT22;4076;48.076;9.118;2023-07-02T01:03:31;16.90;99.90
8067;DHT22;4076;48.076;9.118;2023-07-02T01:05:58;16.90;99.90
8067;DHT22;4076;48.076;9.118;2023-07-02T01:08:24;16.90;99.90
8067;DHT22;4076;48.076;9.118;2023-07-02T01:10:50;16.90;99.90
8067;DHT22;4076;48.076;9.118;2023-07-02T01:13:19;16.90;99.90
8067;DHT22;4076;48.076;9.118;2023-07-02T01:15:47;16.90;99.90
8067;DHT22;4076;48.076;9.118;2023-07-02T01:18:14;16.90;99.90
8067;DHT22;4076;48.076;9.118;2023-07-02T01:20:42;16.90;99.90
8067;DHT22;4076;48.076;9.118;2023-07-02T01:23:09;16.90;99.90
8067;DHT22;4076;48.076;9.118;2023-07-02T01:25:35;16.90;99.90
8067;DHT22;4076;48.076;9.118;2023-07-02T01:28:02;16.90;99.90
8067;DHT22;4076;48.076;9.118;2023-07-02T01:30:28;16.90;99.90
8067;DHT22;4076;48.076;9.118;2023-07-02T01:32:54;16.90;99.90
8067;DHT22;4076;48.076;9.118;2023-07-02T01:35:19;16.80;99.90
8067;DHT22;4076;48.076;9.118;2023-07-02T01:37:45;16.80;99.90
8067;DHT22;4076;48.076;9.118;2023-07-02T01:40:11;16.80;99.90
8067;DHT22;4076;48.076;9.118;2023-07-02T01:42:37;16.70;99.90
8067;DHT22;4076;48.076;9.118;2023-07-02T01:45:04;16.60;99.90
8067;DHT22;4076;48.076;9.118;2023-07-02T01:47:29;16.60;99.90
8067;DHT22;4076;48.076;9.118;2023-07-02T01:49:55;16.60;99.90
8067;DHT22;4076;48.076;9.118;2023-07-02T01:52:20;16.60;99.90
8067;DHT22;4076;48.076;9.118;2023-07-02T01:54:46;16.60;99.90
8067;DHT22;4076;48.076;9.118;2023-07-02T01:57:12;16.60;99.90
8067;DHT22;4076;48.076;9.118;2023-07-02T01:59:37;16.60;99.90
8067;DHT22;4076;48.076;9.118;2023-07-02T02:02:03;16.60;99.90
8067;DHT22;4076;48.076;9.118;2023-07-02T02:04:29;16.50;99.90
8067;DHT22;4076;48.076;9.118;2023-07-02T02:06:55;16.50;99.90
8067;DHT22;4076;48.076;9.118;2023-07-02T02:09:20;16.50;99.90
8067;DHT22;4076;48.076;9.118;2023-07-02T02:11:49;16.40;99.90
8067;DHT22;4076;48.076;9.118;2023-07-02T02:14:14;16.40;99.90
8067;DHT22;4076;48.076;9.118;2023-07-02T02:16:40;16.40;99.90
8067;DHT22;4076;48.076;9.118;2023-07-02T02:19:06;16.30;99.90
8067;DHT22;4076;48.076;9.118;2023-07-02T02:21:32;16.30;99.90
8067;DHT22;4076;48.076;9.118;2023-07-02T02:23:58;16.30;99.90
8067;DHT22;4076;48.076;9.118;2023-07-02T02:26:23;16.30;99.90
8067;DHT22;4076;48.076;9.118;2023-07-02T02:28:51;16.50;99.90
8067;DHT22;4076;48.076;9.118;2023-07-02T02:31:16;16.30;99.90
8067;DHT22;4076;48.076;9.118;2023-07-02T02:33:42;16.30;99.90
8067;DHT22;4076;48.076;9.118;2023-07-02T02:36:08;16.20;99.90
8067;DHT22;4076;48.076;9.118;2023-07-02T02:38:33;16.20;99.90
8067;DHT22;4076;48.076;9.118;2023-07-02T02:40:59;16.20;99.90
8067;DHT22;4076;48.076;9.118;2023-07-02T02:43:26;16.20;99.90
8067;DHT22;4076;48.076;9.118;2023-07-02T02:45:51;16.20;99.90
8067;DHT22;4076;48.076;9.118;2023-07-02T02:48:17;16.20;99.90
8067;DHT22;4076;48.076;9.118;2023-07-02T02:50:42;16.30;99.90
8067;DHT22;4076;48.076;9.118;2023-07-02T02:53:09;16.30;99.90
8067;DHT22;4076;48.076;9.118;2023-07-02T02:55:38;16.20;99.90
8067;DHT22;4076;48.076;9.118;2023-07-02T02:58:03;16.20;99.90
8067;DHT22;4076;48.076;9.118;2023-07-02T03:00:29;16.20;99.90
8067;DHT22;4076;48.076;9.118;2023-07-02T03:02:55;16.20;99.90
8067;DHT22;4076;48.076;9.118;2023-07-02T03:05:23;16.20;99.90
8067;DHT22;4076;48.076;9.118;2023-07-02T03:07:50;16.20;99.90
8067;DHT22;4076;48.076;9.118;2023-07-02T03:10:17;16.20;99.90
8067;DHT22;4076;48.076;9.118;2023-07-02T03:12:42;16.20;99.90
8067;DHT22;4076;48.076;9.118;2023-07-02T03:15:08;16.10;99.90
8067;DHT22;4076;48.076;9.118;2023-07-02T03:17:35;16.10;99.90
8067;DHT22;4076;48.076;9.118;2023-07-02T03:20:00;16.10;99.90
8067;DHT22;4076;48.076;9.118;2023-07-02T03:22:26;16.00;99.90
8067;DHT22;4076;48.076;9.118;2023-07-02T03:24:52;16.00;99.90
8067;DHT22;4076;48.076;9.118;2023-07-02T03:27:17;16.00;99.90
8067;DHT22;4076;48.076;9.118;2023-07-02T03:29:43;16.00;99.90
8067;DHT22;4076;48.076;9.118;2023-07-02T03:32:09;16.00;99.90
8067;DHT22;4076;48.076;9.118;2023-07-02T03:34:34;16.00;99.90
8067;DHT22;4076;48.076;9.118;2023-07-02T03:37:00;16.00;99.90
8067;DHT22;4076;48.076;9.118;2023-07-02T03:39:25;16.00;99.90
8067;DHT22;4076;48.076;9.118;2023-07-02T03:41:51;16.10;99.90
8067;DHT22;4076;48.076;9.118;2023-07-02T03:44:17;16.10;99.90
8067;DHT22;4076;48.076;9.118;2023-07-02T03:46:43;16.10;99.90
8067;DHT22;4076;48.076;9.118;2023-07-02T03:49:08;16.20;99.90
8067;DHT22;4076;48.076;9.118;2023-07-02T03:51:34;16.20;99.90
8067;DHT22;4076;48.076;9.118;2023-07-02T03:53:59;16.20;99.90
8067;DHT22;4076;48.076;9.118;2023-07-02T03:56:25;16.20;99.90
8067;DHT22;4076;48.076;9.118;2023-07-02T03:58:52;16.20;99.90
8067;DHT22;4076;48.076;9.118;2023-07-02T04:01:17;16.20;99.90
8067;DHT22;4076;48.076;9.118;2023-07-02T04:03:50;16.20;99.90
8067;DHT22;4076;48.076;9.118;2023-07-02T04:06:16;16.20;99.90
8067;DHT22;4076;48.076;9.118;2023-07-02T04:08:42;16.20;99.90
8067;DHT22;4076;48.076;9.118;2023-07-02T04:11:08;16.20;99.90
8067;DHT22;4076;48.076;9.118;2023-07-02T04:13:33;16.30;99.90
8067;DHT22;4076;48.076;9.118;2023-07-02T04:15:59;16.30;99.90
8067;DHT22;4076;48.076;9.118;2023-07-02T04:18:25;16.30;99.90
8067;DHT22;4076;48.076;9.118;2023-07-02T04:20:50;16.30;99.90
8067;DHT22;4076;48.076;9.118;2023-07-02T04:23:16;16.30;99.90
8067;DHT22;4076;48.076;9.118;2023-07-02T04:25:42;16.30;99.90
8067;DHT22;4076;48.076;9.118;2023-07-02T04:28:07;16.30;99.90
8067;DHT22;4076;48.076;9.118;2023-07-02T04:30:33;16.30;99.90
8067;DHT22;4076;48.076;9.118;2023-07-02T04:32:58;16.30;99.90
8067;DHT22;4076;48.076;9.118;2023-07-02T04:35:24;16.40;99.90
8067;DHT22;4076;48.076;9.118;2023-07-02T04:37:49;16.40;99.90
8067;DHT22;4076;48.076;9.118;2023-07-02T04:40:15;16.40;99.90
8067;DHT22;4076;48.076;9.118;2023-07-02T04:42:42;16.40;99.90
8067;DHT22;4076;48.076;9.118;2023-07-02T04:45:12;16.40;99.90
8067;DHT22;4076;48.076;9.118;2023-07-02T04:47:38;16.40;99.90
8067;DHT22;4076;48.076;9.118;2023-07-02T04:50:05;16.40;99.90
8067;DHT22;4076;48.076;9.118;2023-07-02T04:52:33;16.40;99.90
8067;DHT22;4076;48.076;9.118;2023-07-02T04:54:58;16.40;99.90
8067;DHT22;4076;48.076;9.118;2023-07-02T04:57:24;16.50;99.90
8067;DHT22;4076;48.076;9.118;2023-07-02T04:59:50;16.50;99.90
8067;DHT22;4076;48.076;9.118;2023-07-02T05:02:15;16.40;99.90
8067;DHT22;4076;48.076;9.118;2023-07-02T05:04:41;16.50;99.90
8067;DHT22;4076;48.076;9.118;2023-07-02T05:07:07;16.50;99.90
8067;DHT22;4076;48.076;9.118;2023-07-02T05:09:32;16.50;99.90
8067;DHT22;4076;48.076;9.118;2023-07-02T05:11:58;16.50;99.90
8067;DHT22;4076;48.076;9.118;2023-07-02T05:14:23;16.60;99.90
8067;DHT22;4076;48.076;9.118;2023-07-02T05:16:49;16.60;99.90
8067;DHT22;4076;48.076;9.118;2023-07-02T05:19:15;16.60;99.90
8067;DHT22;4076;48.076;9.118;2023-07-02T05:21:41;16.60;99.90
8067;DHT22;4076;48.076;9.118;2023-07-02T05:24:07;16.60;99.90
8067;DHT22;4076;48.076;9.118;2023-07-02T05:26:33;16.70;99.90
8067;DHT22;4076;48.076;9.118;2023-07-02T05:28:59;16.70;99.90
8067;DHT22;4076;48.076;9.118;2023-07-02T05:31:25;16.80;99.90
8067;DHT22;4076;48.076;9.118;2023-07-02T05:33:50;16.80;99.90
8067;DHT22;4076;48.076;9.118;2023-07-02T05:36:16;16.90;99.90
8067;DHT22;4076;48.076;9.118;2023-07-02T05:38:41;16.90;99.90
8067;DHT22;4076;48.076;9.118;2023-07-02T05:41:07;16.90;99.90
8067;DHT22;4076;48.076;9.118;2023-07-02T05:43:32;17.00;99.90
8067;DHT22;4076;48.076;9.118;2023-07-02T05:45:59;17.10;99.90
8067;DHT22;4076;48.076;9.118;2023-07-02T05:48:27;17.10;99.90
8067;DHT22;4076;48.076;9.118;2023-07-02T05:50:53;17.20;99.90
8067;DHT22;4076;48.076;9.118;2023-07-02T05:53:20;17.20;99.90
8067;DHT22;4076;48.076;9.118;2023-07-02T05:55:46;17.30;99.90
8067;DHT22;4076;48.076;9.118;2023-07-02T05:58:12;17.30;99.90
8067;DHT22;4076;48.076;9.118;2023-07-02T06:00:38;17.40;99.90
8067;DHT22;4076;48.076;9.118;2023-07-02T06:03:04;17.40;99.90
8067;DHT22;4076;48.076;9.118;2023-07-02T06:05:30;17.50;99.90
8067;DHT22;4076;48.076;9.118;2023-07-02T06:07:56;17.50;99.90
8067;DHT22;4076;48.076;9.118;2023-07-02T06:10:21;17.60;99.90
8067;DHT22;4076;48.076;9.118;2023-07-02T06:12:47;17.60;99.90
8067;DHT22;4076;48.076;9.118;2023-07-02T06:15:12;17.60;99.90
8067;DHT22;4076;48.076;9.118;2023-07-02T06:17:38;17.70;99.90
8067;DHT22;4076;48.076;9.118;2023-07-02T06:20:04;17.70;99.90
8067;DHT22;4076;48.076;9.118;2023-07-02T06:22:30;17.70;99.90
8067;DHT22;4076;48.076;9.118;2023-07-02T06:24:56;17.70;99.90
8067;DHT22;4076;48.076;9.118;2023-07-02T06:27:22;17.60;99.90
8067;DHT22;4076;48.076;9.118;2023-07-02T06:29:47;17.60;99.90
8067;DHT22;4076;48.076;9.118;2023-07-02T06:32:13;17.70;99.90
8067;DHT22;4076;48.076;9.118;2023-07-02T06:34:38;17.70;99.90
8067;DHT22;4076;48.076;9.118;2023-07-02T06:37:05;17.80;99.90
8067;DHT22;4076;48.076;9.118;2023-07-02T06:39:30;18.00;99.90
8067;DHT22;4076;48.076;9.118;2023-07-02T06:41:56;18.10;99.90
8067;DHT22;4076;48.076;9.118;2023-07-02T06:44:21;18.30;99.90
8067;DHT22;4076;48.076;9.118;2023-07-02T06:46:47;18.50;99.90
8067;DHT22;4076;48.076;9.118;2023-07-02T06:49:12;18.70;99.90
8067;DHT22;4076;48.076;9.118;2023-07-02T06:51:38;19.10;99.90
8067;DHT22;4076;48.076;9.118;2023-07-02T06:54:04;19.50;99.90
8067;DHT22;4076;48.076;9.118;2023-07-02T06:56:30;19.90;99.90
8067;DHT22;4076;48.076;9.118;2023-07-02T06:58:56;20.20;99.90
8067;DHT22;4076;48.076;9.118;2023-07-02T07:01:22;20.40;99.90
8067;DHT22;4076;48.076;9.118;2023-07-02T07:03:47;20.70;99.90
8067;DHT22;4076;48.076;9.118;2023-07-02T07:06:13;21.20;99.90
8067;DHT22;4076;48.076;9.118;2023-07-02T07:08:39;22.00;99.90
8067;DHT22;4076;48.076;9.118;2023-07-02T07:11:05;22.90;99.90
8067;DHT22;4076;48.076;9.118;2023-07-02T07:13:30;23.10;99.90
8067;DHT22;4076;48.076;9.118;2023-07-02T07:15:56;23.00;99.90
8067;DHT22;4076;48.076;9.118;2023-07-02T07:18:21;22.90;99.90
8067;DHT22;4076;48.076;9.118;2023-07-02T07:20:47;22.70;99.90
8067;DHT22;4076;48.076;9.118;2023-07-02T07:23:12;22.60;99.00
8067;DHT22;4076;48.076;9.118;2023-07-02T07:25:38;22.40;97.20
8067;DHT22;4076;48.076;9.118;2023-07-02T07:28:04;22.30;96.80
8067;DHT22;4076;48.076;9.118;2023-07-02T07:30:29;22.20;95.70
8067;DHT22;4076;48.076;9.118;2023-07-02T07:32:55;22.10;93.60
8067;DHT22;4076;48.076;9.118;2023-07-02T07:35:21;22.00;92.70
8067;DHT22;4076;48.076;9.118;2023-07-02T07:37:47;22.00;91.80
8067;DHT22;4076;48.076;9.118;2023-07-02T07:40:13;21.90;91.70
8067;DHT22;4076;48.076;9.118;2023-07-02T07:42:40;22.00;91.00
8067;DHT22;4076;48.076;9.118;2023-07-02T07:45:06;22.50;90.50
8067;DHT22;4076;48.076;9.118;2023-07-02T07:47:32;23.40;83.40
8067;DHT22;4076;48.076;9.118;2023-07-02T07:49:57;24.60;82.40
8067;DHT22;4076;48.076;9.118;2023-07-02T07:52:23;25.30;75.10
8067;DHT22;4076;48.076;9.118;2023-07-02T07:54:48;25.90;61.20
8067;DHT22;4076;48.076;9.118;2023-07-02T07:57:14;26.50;58.00
8067;DHT22;4076;48.076;9.118;2023-07-02T07:59:40;27.50;56.70
8067;DHT22;4076;48.076;9.118;2023-07-02T08:02:06;28.30;54.00
8067;DHT22;4076;48.076;9.118;2023-07-02T08:04:32;29.10;50.90
8067;DHT22;4076;48.076;9.118;2023-07-02T08:06:57;29.30;49.10
8067;DHT22;4076;48.076;9.118;2023-07-02T08:09:23;29.70;47.00
8067;DHT22;4076;48.076;9.118;2023-07-02T08:11:50;29.60;46.30
8067;DHT22;4076;48.076;9.118;2023-07-02T08:14:16;28.70;46.10
8067;DHT22;4076;48.076;9.118;2023-07-02T08:16:43;27.90;47.80
8067;DHT22;4076;48.076;9.118;2023-07-02T08:19:09;28.30;46.70
8067;DHT22;4076;48.076;9.118;2023-07-02T08:21:35;29.20;46.00
8067;DHT22;4076;48.076;9.118;2023-07-02T08:24:00;30.20;44.90
8067;DHT22;4076;48.076;9.118;2023-07-02T08:26:26;31.00;43.40
8067;DHT22;4076;48.076;9.118;2023-07-02T08:28:51;32.10;42.00
8067;DHT22;4076;48.076;9.118;2023-07-02T08:31:17;33.60;39.90
8067;DHT22;4076;48.076;9.118;2023-07-02T08:33:43;34.30;38.70
8067;DHT22;4076;48.076;9.118;2023-07-02T08:36:08;33.90;37.40
8067;DHT22;4076;48.076;9.118;2023-07-02T08:38:34;33.00;38.10
8067;DHT22;4076;48.076;9.118;2023-07-02T08:41:00;33.60;37.60
8067;DHT22;4076;48.076;9.118;2023-07-02T08:43:26;34.30;36.80
8067;DHT22;4076;48.076;9.118;2023-07-02T08:45:53;35.50;35.40
8067;DHT22;4076;48.076;9.118;2023-07-02T08:48:19;36.50;33.10
8067;DHT22;4076;48.076;9.118;2023-07-02T08:50:48;36.40;32.60
8067;DHT22;4076;48.076;9.118;2023-07-02T08:53:15;35.70;32.50
8067;DHT22;4076;48.076;9.118;2023-07-02T08:55:40;35.30;34.10
8067;DHT22;4076;48.076;9.118;2023-07-02T08:58:06;35.70;33.30
8067;DHT22;4076;48.076;9.118;2023-07-02T09:00:31;36.20;33.10
8067;DHT22;4076;48.076;9.118;2023-07-02T09:03:15;37.40;32.20
8067;DHT22;4076;48.076;9.118;2023-07-02T09:05:51;36.70;30.80
8067;DHT22;4076;48.076;9.118;2023-07-02T09:08:27;34.90;32.10
8067;DHT22;4076;48.076;9.118;2023-07-02T09:10:53;33.90;33.10
8067;DHT22;4076;48.076;9.118;2023-07-02T09:13:19;33.20;34.50
8067;DHT22;4076;48.076;9.118;2023-07-02T09:15:44;33.00;33.90
8067;DHT22;4076;48.076;9.118;2023-07-02T09:18:22;32.10;34.50
8067;DHT22;4076;48.076;9.118;2023-07-02T09:20:52;31.30;35.50
8067;DHT22;4076;48.076;9.118;2023-07-02T09:23:19;31.80;36.10
8067;DHT22;4076;48.076;9.118;2023-07-02T09:25:45;33.50;36.20
8067;DHT22;4076;48.076;9.118;2023-07-02T09:28:22;35.70;33.80
8067;DHT22;4076;48.076;9.118;2023-07-02T09:30:56;36.80;31.40
8067;DHT22;4076;48.076;9.118;2023-07-02T09:33:24;37.20;31.50
8067;DHT22;4076;48.076;9.118;2023-07-02T09:35:49;37.40;30.80
8067;DHT22;4076;48.076;9.118;2023-07-02T09:38:16;36.20;30.50
8067;DHT22;4076;48.076;9.118;2023-07-02T09:40:52;34.40;31.10
8067;DHT22;4076;48.076;9.118;2023-07-02T09:43:18;33.10;33.00
8067;DHT22;4076;48.076;9.118;2023-07-02T09:45:46;32.10;34.00
8067;DHT22;4076;48.076;9.118;2023-07-02T09:48:13;30.90;34.80
8067;DHT22;4076;48.076;9.118;2023-07-02T09:50:44;30.60;36.70
8067;DHT22;4076;48.076;9.118;2023-07-02T09:53:10;30.80;36.40
8067;DHT22;4076;48.076;9.118;2023-07-02T09:55:39;31.00;36.60
8067;DHT22;4076;48.076;9.118;2023-07-02T09:58:05;31.10;36.80
8067;DHT22;4076;48.076;9.118;2023-07-02T10:00:31;31.10;36.70
8067;DHT22;4076;48.076;9.118;2023-07-02T10:02:57;31.10;37.30
8067;DHT22;4076;48.076;9.118;2023-07-02T10:05:30;30.90;37.00
8067;DHT22;4076;48.076;9.118;2023-07-02T10:08:11;30.60;37.60
8067;DHT22;4076;48.076;9.118;2023-07-02T10:10:38;30.10;37.50
8067;DHT22;4076;48.076;9.118;2023-07-02T10:13:03;29.50;38.00
8067;DHT22;4076;48.076;9.118;2023-07-02T10:15:30;29.00;38.30
8067;DHT22;4076;48.076;9.118;2023-07-02T10:17:58;28.80;39.30
8067;DHT22;4076;48.076;9.118;2023-07-02T10:20:38;28.80;40.50
8067;DHT22;4076;48.076;9.118;2023-07-02T10:23:05;28.70;40.20
8067;DHT22;4076;48.076;9.118;2023-07-02T10:25:33;28.70;40.60
8067;DHT22;4076;48.076;9.118;2023-07-02T10:28:01;28.80;40.50
8067;DHT22;4076;48.076;9.118;2023-07-02T10:30:34;28.90;40.50
8067;DHT22;4076;48.076;9.118;2023-07-02T10:33:16;28.70;40.90
8067;DHT22;4076;48.076;9.118;2023-07-02T10:35:44;28.60;40.90
8067;DHT22;4076;48.076;9.118;2023-07-02T10:38:22;28.50;41.10
8067;DHT22;4076;48.076;9.118;2023-07-02T10:40:57;28.50;41.50
8067;DHT22;4076;48.076;9.118;2023-07-02T10:43:27;28.70;41.30
8067;DHT22;4076;48.076;9.118;2023-07-02T10:45:54;28.90;41.40
8067;DHT22;4076;48.076;9.118;2023-07-02T10:48:20;29.00;40.70
8067;DHT22;4076;48.076;9.118;2023-07-02T10:50:45;29.00;41.40
8067;DHT22;4076;48.076;9.118;2023-07-02T10:53:19;28.90;40.80
8067;DHT22;4076;48.076;9.118;2023-07-02T10:55:45;29.00;41.00
8067;DHT22;4076;48.076;9.118;2023-07-02T10:58:12;28.90;39.80
8067;DHT22;4076;48.076;9.118;2023-07-02T11:00:49;28.40;40.20
8067;DHT22;4076;48.076;9.118;2023-07-02T11:03:23;28.00;40.80
8067;DHT22;4076;48.076;9.118;2023-07-02T11:05:49;27.80;41.10
8067;DHT22;4076;48.076;9.118;2023-07-02T11:08:16;27.60;41.20
8067;DHT22;4076;48.076;9.118;2023-07-02T11:10:42;27.30;41.40
8067;DHT22;4076;48.076;9.118;2023-07-02T11:13:25;27.00;41.70
8067;DHT22;4076;48.076;9.118;2023-07-02T11:15:51;26.80;41.70
8067;DHT22;4076;48.076;9.118;2023-07-02T11:18:17;26.70;41.80
8067;DHT22;4076;48.076;9.118;2023-07-02T11:20:46;26.60;42.20
8067;DHT22;4076;48.076;9.118;2023-07-02T11:23:23;26.40;42.20
8067;DHT22;4076;48.076;9.118;2023-07-02T11:25:59;26.20;42.40
8067;DHT22;4076;48.076;9.118;2023-07-02T11:28:26;26.00;42.70
8067;DHT22;4076;48.076;9.118;2023-07-02T11:30:51;25.90;42.40
8067;DHT22;4076;48.076;9.118;2023-07-02T11:33:17;25.90;42.60
8067;DHT22;4076;48.076;9.118;2023-07-02T11:35:43;25.90;42.10
8067;DHT22;4076;48.076;9.118;2023-07-02T11:38:09;25.90;42.30
8067;DHT22;4076;48.076;9.118;2023-07-02T11:40:38;25.90;41.80
8067;DHT22;4076;48.076;9.118;2023-07-02T11:43:04;25.80;42.30
8067;DHT22;4076;48.076;9.118;2023-07-02T11:45:31;25.70;42.40
8067;DHT22;4076;48.076;9.118;2023-07-02T11:47:56;25.70;42.70
8067;DHT22;4076;48.076;9.118;2023-07-02T11:50:22;25.80;42.70
8067;DHT22;4076;48.076;9.118;2023-07-02T11:52:48;25.90;43.20
8067;DHT22;4076;48.076;9.118;2023-07-02T11:55:13;25.90;43.20
8067;DHT22;4076;48.076;9.118;2023-07-02T11:57:39;25.90;43.30
8067;DHT22;4076;48.076;9.118;2023-07-02T12:00:05;25.90;43.90
8067;DHT22;4076;48.076;9.118;2023-07-02T12:02:31;26.10;44.10
8067;DHT22;4076;48.076;9.118;2023-07-02T12:04:56;26.40;44.90
8067;DHT22;4076;48.076;9.118;2023-07-02T12:07:22;26.50;43.30
8067;DHT22;4076;48.076;9.118;2023-07-02T12:09:47;26.70;43.90
8067;DHT22;4076;48.076;9.118;2023-07-02T12:12:13;26.90;43.70
8067;DHT22;4076;48.076;9.118;2023-07-02T12:14:38;26.90;43.60
8067;DHT22;4076;48.076;9.118;2023-07-02T12:17:08;26.90;44.50
8067;DHT22;4076;48.076;9.118;2023-07-02T12:19:34;27.00;44.00
8067;DHT22;4076;48.076;9.118;2023-07-02T12:21:59;27.00;43.40
8067;DHT22;4076;48.076;9.118;2023-07-02T12:24:25;27.00;43.40
8067;DHT22;4076;48.076;9.118;2023-07-02T12:26:50;27.10;43.60
8067;DHT22;4076;48.076;9.118;2023-07-02T12:29:16;27.20;43.30
8067;DHT22;4076;48.076;9.118;2023-07-02T12:31:41;27.40;43.10
8067;DHT22;4076;48.076;9.118;2023-07-02T12:34:07;27.50;42.80
8067;DHT22;4076;48.076;9.118;2023-07-02T12:36:33;27.50;42.60
8067;DHT22;4076;48.076;9.118;2023-07-02T12:38:58;27.30;43.70
8067;DHT22;4076;48.076;9.118;2023-07-02T12:41:24;27.40;42.40
8067;DHT22;4076;48.076;9.118;2023-07-02T12:43:50;27.30;42.80
8067;DHT22;4076;48.076;9.118;2023-07-02T12:46:15;27.30;42.80
8067;DHT22;4076;48.076;9.118;2023-07-02T12:48:41;27.30;42.80
8067;DHT22;4076;48.076;9.118;2023-07-02T12:51:06;27.30;43.00
8067;DHT22;4076;48.076;9.118;2023-07-02T12:53:32;27.00;42.50
8067;DHT22;4076;48.076;9.118;2023-07-02T12:55:57;26.70;43.70
8067;DHT22;4076;48.076;9.118;2023-07-02T12:58:23;26.60;44.10
8067;DHT22;4076;48.076;9.118;2023-07-02T13:00:48;26.30;44.10
8067;DHT22;4076;48.076;9.118;2023-07-02T13:03:18;26.10;44.40
8067;DHT22;4076;48.076;9.118;2023-07-02T13:05:43;26.20;44.10
8067;DHT22;4076;48.076;9.118;2023-07-02T13:08:10;26.40;44.50
8067;DHT22;4076;48.076;9.118;2023-07-02T13:10:35;26.50;44.70
8067;DHT22;4076;48.076;9.118;2023-07-02T13:13:01;26.30;44.90
8067;DHT22;4076;48.076;9.118;2023-07-02T13:15:27;26.20;45.30
8067;DHT22;4076;48.076;9.118;2023-07-02T13:17:52;26.20;44.90
8067;DHT22;4076;48.076;9.118;2023-07-02T13:20:18;26.10;45.00
8067;DHT22;4076;48.076;9.118;2023-07-02T13:22:43;26.20;45.30
8067;DHT22;4076;48.076;9.118;2023-07-02T13:25:09;26.20;45.50
8067;DHT22;4076;48.076;9.118;2023-07-02T13:27:35;26.30;45.60
8067;DHT22;4076;48.076;9.118;2023-07-02T13:30:00;26.40;44.70
8067;DHT22;4076;48.076;9.118;2023-07-02T13:32:26;26.40;45.20
8067;DHT22;4076;48.076;9.118;2023-07-02T13:34:52;26.40;44.60
8067;DHT22;4076;48.076;9.118;2023-07-02T13:37:17;26.40;44.20
8067;DHT22;4076;48.076;9.118;2023-07-02T13:39:47;26.40;44.20
8067;DHT22;4076;48.076;9.118;2023-07-02T13:42:13;26.30;44.40
8067;DHT22;4076;48.076;9.118;2023-07-02T13:44:39;26.20;44.40
8067;DHT22;4076;48.076;9.118;2023-07-02T13:47:05;26.20;44.70
8067;DHT22;4076;48.076;9.118;2023-07-02T13:49:32;26.10;44.90
8067;DHT22;4076;48.076;9.118;2023-07-02T13:51:58;26.10;44.40
8067;DHT22;4076;48.076;9.118;2023-07-02T13:54:23;26.00;44.00
8067;DHT22;4076;48.076;9.118;2023-07-02T13:56:49;25.80;44.50
8067;DHT22;4076;48.076;9.118;2023-07-02T13:59:15;25.70;44.90
8067;DHT22;4076;48.076;9.118;2023-07-02T14:01:42;25.60;45.10
8067;DHT22;4076;48.076;9.118;2023-07-02T14:04:08;25.60;45.20
8067;DHT22;4076;48.076;9.118;2023-07-02T14:06:34;25.60;45.20
8067;DHT22;4076;48.076;9.118;2023-07-02T14:09:00;25.60;44.90
8067;DHT22;4076;48.076;9.118;2023-07-02T14:11:26;25.50;44.90
8067;DHT22;4076;48.076;9.118;2023-07-02T14:13:53;25.50;44.90
8067;DHT22;4076;48.076;9.118;2023-07-02T14:16:19;25.40;45.70
8067;DHT22;4076;48.076;9.118;2023-07-02T14:18:44;25.40;45.70
8067;DHT22;4076;48.076;9.118;2023-07-02T14:21:10;25.40;45.60
8067;DHT22;4076;48.076;9.118;2023-07-02T14:23:36;25.40;45.40
8067;DHT22;4076;48.076;9.118;2023-07-02T14:26:01;25.40;45.20
8067;DHT22;4076;48.076;9.118;2023-07-02T14:28:27;25.30;45.40
8067;DHT22;4076;48.076;9.118;2023-07-02T14:30:59;25.40;45.30
8067;DHT22;4076;48.076;9.118;2023-07-02T14:33:26;25.40;45.40
8067;DHT22;4076;48.076;9.118;2023-07-02T14:35:52;25.50;46.50
8067;DHT22;4076;48.076;9.118;2023-07-02T14:38:18;25.40;46.00
8067;DHT22;4076;48.076;9.118;2023-07-02T14:40:44;25.30;45.80
8067;DHT22;4076;48.076;9.118;2023-07-02T14:43:09;25.20;45.80
8067;DHT22;4076;48.076;9.118;2023-07-02T14:45:35;25.00;47.00
8067;DHT22;4076;48.076;9.118;2023-07-02T14:48:00;25.00;45.70
8067;DHT22;4076;48.076;9.118;2023-07-02T14:50:27;24.80;45.50
8067;DHT22;4076;48.076;9.118;2023-07-02T14:52:52;24.60;45.50
8067;DHT22;4076;48.076;9.118;2023-07-02T14:55:18;24.50;45.70
8067;DHT22;4076;48.076;9.118;2023-07-02T14:57:44;24.60;45.80
8067;DHT22;4076;48.076;9.118;2023-07-02T15:00:10;24.60;45.90
8067;DHT22;4076;48.076;9.118;2023-07-02T15:02:36;24.60;45.80
8067;DHT22;4076;48.076;9.118;2023-07-02T15:05:01;24.60;46.00
8067;DHT22;4076;48.076;9.118;2023-07-02T15:07:28;24.60;46.40
8067;DHT22;4076;48.076;9.118;2023-07-02T15:09:54;24.60;46.70
8067;DHT22;4076;48.076;9.118;2023-07-02T15:12:19;24.60;47.40
8067;DHT22;4076;48.076;9.118;2023-07-02T15:14:45;24.60;46.80
8067;DHT22;4076;48.076;9.118;2023-07-02T15:17:10;24.60;47.40
8067;DHT22;4076;48.076;9.118;2023-07-02T15:19:36;24.50;46.80
8067;DHT22;4076;48.076;9.118;2023-07-02T15:22:02;24.50;47.70
8067;DHT22;4076;48.076;9.118;2023-07-02T15:24:28;24.30;47.70
8067;DHT22;4076;48.076;9.118;2023-07-02T15:26:53;24.30;47.70
8067;DHT22;4076;48.076;9.118;2023-07-02T15:29:19;24.20;47.70
8067;DHT22;4076;48.076;9.118;2023-07-02T15:31:44;24.10;48.40
8067;DHT22;4076;48.076;9.118;2023-07-02T15:34:12;24.10;48.60
8067;DHT22;4076;48.076;9.118;2023-07-02T15:36:41;24.20;48.20
8067;DHT22;4076;48.076;9.118;2023-07-02T15:39:07;24.30;48.40
8067;DHT22;4076;48.076;9.118;2023-07-02T15:41:33;24.50;48.50
8067;DHT22;4076;48.076;9.118;2023-07-02T15:43:59;24.60;48.70
8067;DHT22;4076;48.076;9.118;2023-07-02T15:46:28;24.70;48.40
8067;DHT22;4076;48.076;9.118;2023-07-02T15:48:54;24.60;46.90
8067;DHT22;4076;48.076;9.118;2023-07-02T15:51:20;24.60;47.30
8067;DHT22;4076;48.076;9.118;2023-07-02T15:53:49;24.50;47.30
8067;DHT22;4076;48.076;9.118;2023-07-02T15:56:16;24.50;47.10
8067;DHT22;4076;48.076;9.118;2023-07-02T15:58:42;24.30;47.50